Quincy, IL

5:04 AM CST on February 08, 2016 (GMT -0600)
LIVE WEATHER | | Change Station
CLOSE
Current Station
Personal Weather Station
Location: Quincy, IL
Elevation: 620 ft
Nearby Weather Stations

Elev 620 ft 40.00 °N, 91.38 °W | Updated 9 seconds ago

Overcast
Overcast
31.1 °F
Feels Like 20 °F
N
15.4
Wind Variable Wind from NW
Gusts 15.4 mph

Today
High -- | Low -- °F
--% Chance of Precip.
Yesterday
High -- | Low -- °F
Precip. -- in
Pressure 29.78 in
Visibility 1.2 miles
Clouds Mostly Cloudy 700 ft
Overcast 1200 ft
Windchill 20 °F
Dew Point 26 °F
Humidity 80%
Rainfall 0.00 in
Snow Depth Not available.
7:07 AM 5:32 PM
Waning Crescent, 0% visible
SPECI KUIN 081102Z AUTO 30018KT 1 1/4SM -SN BR BKN007 OVC012 M02/M03 A2978 RMK AO2 P0000 T10171033
Pressure 29.78 in
Visibility 1.2 miles
Clouds Mostly Cloudy 700 ft
Overcast 1200 ft
Windchill 20 °F
Dew Point 26 °F
Humidity 80%
Rainfall 0.00 in
Snow Depth Not available.
7:07 AM 5:32 PM
Waning Crescent, 0% visible
SPECI KUIN 081102Z AUTO 30018KT 1 1/4SM -SN BR BKN007 OVC012 M02/M03 A2978 RMK AO2 P0000 T10171033

10-Day Weather Forecast

Almanac

Astronomy

Feb. 08, 2016 Rise Set
Actual Time
Civil Twilight
Nautical Twilight
Astronomical Twilight
Moon
Length of Visible Light
Length of Day
Tomorrow will be .
, % of the Moon is Illuminated

Today's Extremes

State Highs State Lows

Community

WunderPhotos

Upload Photos

1,891,420 photos uploaded!

WunderBlog® & News

Nearby

Air Quality

  Air Quality AQ Index Pollutant
Not available.

Snow Depth

Station Depth Elevation

Earthquake Activity

City Distance Mag. Time & Date
Minimum magnitude displayed is 2.5.

Coastal Water Temperatures

Place Temperature

Stations

Nearby Weather Stations

Station Location Temp. Windchill Dew Point Humidity Wind Precip. Elev Updated Type
                   

Watches & Warnings

There are currently no watches in effect.